createdAt,value
2022-11-23T00:01:42.060Z,0.40
2022-11-23T00:06:45.209Z,0.50
2022-11-23T00:11:48.333Z,0.82
2022-11-23T00:16:52.881Z,0.80
2022-11-23T00:21:56.039Z,0.70
2022-11-23T00:27:00.323Z,0.50
2022-11-23T00:32:05.959Z,0.77
2022-11-23T00:37:09.383Z,0.85
2022-11-23T00:42:12.575Z,0.60
2022-11-23T00:47:17.113Z,0.55
2022-11-23T00:52:20.261Z,0.60
2022-11-23T00:57:23.427Z,0.70
2022-11-23T01:02:28.065Z,0.50
2022-11-23T01:07:31.728Z,0.38
2022-11-23T01:12:34.966Z,0.43
2022-11-23T01:17:39.551Z,0.65
2022-11-23T01:22:43.247Z,0.20
2022-11-23T01:27:46.434Z,0.47
2022-11-23T01:32:50.991Z,0.50
2022-11-23T01:37:54.129Z,0.47
2022-11-23T01:43:00.382Z,0.20
2022-11-23T01:48:09.469Z,0.30
2022-11-23T01:53:12.795Z,0.40
2022-11-23T01:58:20.431Z,0.55
2022-11-23T02:03:25.474Z,0.40
2022-11-23T02:08:29.606Z,0.30
2022-11-23T02:13:33.186Z,0.60
2022-11-23T02:18:39.922Z,0.20
2022-11-23T02:23:51.356Z,0.25
2022-11-23T02:29:01.403Z,0.20
2022-11-23T02:34:04.705Z,0.30
2022-11-23T02:39:12.000Z,0.10
2022-11-23T02:44:35.416Z,0.15
2022-11-23T02:49:38.731Z,0.20
2022-11-23T02:54:41.887Z,0.17
2022-11-23T02:59:46.446Z,0.10
2022-11-23T03:04:49.589Z,0.10
2022-11-23T03:09:52.782Z,0.00
2022-11-23T03:14:57.400Z,0.10
2022-11-23T03:20:00.623Z,0.10
2022-11-23T03:25:03.774Z,0.10
2022-11-23T03:30:10.570Z,0.00
2022-11-23T03:35:13.966Z,0.22
2022-11-23T03:40:17.287Z,0.17
2022-11-23T03:45:21.861Z,0.38
2022-11-23T03:50:24.988Z,0.10
2022-11-23T03:55:28.158Z,0.28
2022-11-23T04:00:32.814Z,0.20
2022-11-23T04:10:38.889Z,0.20
2022-11-23T04:15:43.470Z,0.40
2022-11-23T04:20:46.591Z,0.20
2022-11-23T04:25:49.723Z,0.32
2022-11-23T04:30:54.310Z,0.40
2022-11-23T04:35:57.422Z,0.60
2022-11-23T04:41:00.632Z,0.60
2022-11-23T04:46:05.241Z,0.55
2022-11-23T04:51:08.779Z,0.75
2022-11-23T04:56:11.958Z,0.70
2022-11-23T05:01:16.649Z,0.80
2022-11-23T05:11:22.746Z,0.80
2022-11-23T05:16:27.283Z,0.60
2022-11-23T05:21:30.438Z,1.08
2022-11-23T05:26:33.550Z,0.85
2022-11-23T05:31:38.154Z,0.80
2022-11-23T05:36:42.495Z,0.57
2022-11-23T05:41:45.795Z,0.35
2022-11-23T05:46:50.336Z,0.40
2022-11-23T05:51:53.525Z,0.45
2022-11-23T05:56:56.702Z,0.28
2022-11-23T06:02:01.339Z,0.77
2022-11-23T06:12:08.143Z,0.80
2022-11-23T06:17:12.694Z,1.13
2022-11-23T06:22:16.470Z,0.77
2022-11-23T06:27:19.600Z,0.77
2022-11-23T06:32:24.164Z,0.80
2022-11-23T06:37:27.359Z,1.38
2022-11-23T06:42:38.844Z,1.20
2022-11-23T06:47:44.623Z,1.52
2022-11-23T06:52:47.758Z,1.02
2022-11-23T06:57:51.242Z,0.73
2022-11-23T07:02:56.634Z,0.90
2022-11-23T07:07:59.842Z,1.25
2022-11-23T07:13:05.907Z,1.20
2022-11-23T07:18:13.167Z,1.20
2022-11-23T07:23:16.310Z,1.40
2022-11-23T07:28:20.014Z,1.30
2022-11-23T07:33:24.605Z,1.10
2022-11-23T07:38:27.763Z,1.20
2022-11-23T07:43:30.985Z,1.27
2022-11-23T07:48:36.699Z,1.33
2022-11-23T07:53:40.016Z,2.30
2022-11-23T07:58:43.178Z,1.65
2022-11-23T08:03:48.190Z,1.80
2022-11-23T08:08:51.722Z,1.90
2022-11-23T08:13:55.065Z,2.38
2022-11-23T08:18:59.665Z,1.92
2022-11-23T08:24:02.919Z,2.20
2022-11-23T08:29:06.170Z,3.05
2022-11-23T08:34:10.708Z,3.13
2022-11-23T08:39:14.898Z,3.67
2022-11-23T08:44:18.123Z,3.38
2022-11-23T08:49:22.718Z,2.70
2022-11-23T08:54:25.868Z,3.72
2022-11-23T08:59:29.024Z,4.15
2022-11-23T09:04:33.834Z,3.42
2022-11-23T09:09:37.292Z,4.38
2022-11-23T09:14:40.496Z,3.63
2022-11-23T09:19:45.044Z,4.20
2022-11-23T09:24:48.181Z,4.05
2022-11-23T09:29:51.377Z,4.35
2022-11-23T09:34:55.964Z,4.40
2022-11-23T09:39:59.164Z,4.65
2022-11-23T09:45:15.629Z,4.35
2022-11-23T09:50:25.867Z,5.55
2022-11-23T09:55:37.832Z,4.70
2022-11-23T10:00:47.495Z,4.93
2022-11-23T10:06:02.145Z,7.28
2022-11-23T10:11:23.242Z,5.20
2022-11-23T10:16:36.706Z,5.18
2022-11-23T10:21:52.779Z,4.50
2022-11-23T10:26:55.934Z,5.95
2022-11-23T10:32:00.944Z,4.53
2022-11-23T10:37:09.567Z,4.97
2022-11-23T10:42:23.206Z,4.43
2022-11-23T10:47:38.812Z,6.25
2022-11-23T10:52:52.401Z,5.00
2022-11-23T10:57:56.065Z,4.88
2022-11-23T11:03:00.305Z,5.25
2022-11-23T11:08:15.091Z,5.38
2022-11-23T11:13:26.772Z,5.85
2022-11-23T11:18:32.867Z,5.70
2022-11-23T11:23:42.411Z,5.47
2022-11-23T11:28:50.278Z,6.57
2022-11-23T11:34:00.114Z,5.43
2022-11-23T11:39:18.669Z,6.47
2022-11-23T11:44:25.533Z,6.20
2022-11-23T11:49:34.406Z,6.80
2022-11-23T11:54:45.207Z,5.82
2022-11-23T11:59:50.496Z,5.68
2022-11-23T12:05:06.704Z,6.72
2022-11-23T12:10:17.298Z,6.50
2022-11-23T12:20:57.189Z,5.95
2022-11-23T12:26:15.699Z,6.63
2022-11-23T12:31:31.523Z,6.47
2022-11-23T12:37:09.389Z,6.30
2022-11-23T12:42:21.754Z,6.32
2022-11-23T12:47:42.978Z,6.75
2022-11-23T12:53:01.131Z,5.68
2022-11-23T12:58:13.187Z,6.28
2022-11-23T13:04:13.062Z,6.32
2022-11-23T13:09:39.382Z,6.68
2022-11-23T13:14:50.850Z,5.88
2022-11-23T13:20:14.200Z,6.50
2022-11-23T13:25:24.404Z,5.90
2022-11-23T13:30:51.956Z,6.57
2022-11-23T13:36:07.649Z,7.18
2022-11-23T13:41:57.874Z,6.50
2022-11-23T13:47:05.398Z,6.38
2022-11-23T13:52:29.072Z,7.05
2022-11-23T13:57:32.825Z,6.35
2022-11-23T14:02:37.607Z,7.17
2022-11-23T14:07:46.403Z,6.50
2022-11-23T14:12:53.433Z,6.40
2022-11-23T14:18:20.144Z,6.35
2022-11-23T14:23:46.456Z,6.00
2022-11-23T14:29:07.696Z,6.75
2022-11-23T14:34:22.200Z,5.93
2022-11-23T14:40:02.396Z,6.00
2022-11-23T14:45:07.646Z,6.43
2022-11-23T14:50:25.821Z,6.38
2022-11-23T14:55:33.146Z,7.45
2022-11-23T15:00:40.491Z,6.82
2022-11-23T15:05:48.746Z,6.95
2022-11-23T15:11:01.361Z,5.85
2022-11-23T15:16:06.393Z,6.20
2022-11-23T15:21:27.231Z,6.75
2022-11-23T15:26:48.024Z,6.82
2022-11-23T15:32:14.227Z,7.28
2022-11-23T15:37:18.268Z,6.85
2022-11-23T15:42:24.032Z,7.20
2022-11-23T15:47:31.135Z,6.70
2022-11-23T15:52:37.990Z,7.28
2022-11-23T15:57:42.775Z,6.40
2022-11-23T16:02:46.095Z,7.05
2022-11-23T16:07:56.462Z,7.57
2022-11-23T16:13:01.282Z,7.00
2022-11-23T16:18:05.688Z,6.30
2022-11-23T16:23:18.851Z,6.60
2022-11-23T16:28:28.844Z,7.80
2022-11-23T16:33:32.124Z,7.13
2022-11-23T16:38:36.691Z,6.65
2022-11-23T16:43:39.884Z,7.18
2022-11-23T16:48:43.689Z,7.15
2022-11-23T16:59:18.242Z,7.47
2022-11-23T17:04:21.434Z,7.53
2022-11-23T17:09:26.140Z,6.05
2022-11-23T17:14:29.939Z,6.20
2022-11-23T17:19:33.423Z,6.47
2022-11-23T17:24:38.155Z,6.65
2022-11-23T17:29:42.339Z,11.80
2022-11-23T17:34:46.029Z,5.97
2022-11-23T17:39:51.793Z,6.63
2022-11-23T17:44:55.378Z,7.65
2022-11-23T17:49:59.708Z,6.82
2022-11-23T17:55:04.475Z,6.32
2022-11-23T18:05:16.548Z,8.97
2022-11-23T18:10:25.669Z,8.70
2022-11-23T18:15:30.453Z,10.07
2022-11-23T18:20:33.674Z,10.75
2022-11-23T18:25:38.258Z,12.02
2022-11-23T18:30:41.447Z,10.43
2022-11-23T18:35:44.619Z,9.63
2022-11-23T18:40:49.173Z,9.63
2022-11-23T18:45:52.878Z,9.02
2022-11-23T18:50:56.208Z,10.03
2022-11-23T18:56:05.543Z,8.95
2022-11-23T19:01:12.376Z,9.05
2022-11-23T19:06:17.227Z,9.85
2022-11-23T19:11:23.650Z,9.52
2022-11-23T19:16:28.945Z,10.32
2022-11-23T19:21:33.479Z,8.82
2022-11-23T19:26:38.307Z,9.27
2022-11-23T19:36:44.453Z,8.80
2022-11-23T19:41:49.266Z,8.88
2022-11-23T19:51:56.491Z,8.93
2022-11-23T19:57:01.223Z,9.27
2022-11-23T20:02:04.441Z,9.90
2022-11-23T20:07:07.687Z,8.82
2022-11-23T20:12:12.246Z,9.18
2022-11-23T20:17:15.697Z,7.80
2022-11-23T20:22:18.889Z,10.15
2022-11-23T20:27:23.442Z,9.07
2022-11-23T20:32:26.598Z,9.15
2022-11-23T20:37:29.737Z,9.13
2022-11-23T20:42:34.288Z,10.50
2022-11-23T20:47:37.640Z,9.82
2022-11-23T20:52:40.873Z,9.10
2022-11-23T20:57:45.432Z,10.38
2022-11-23T21:02:50.985Z,9.93
2022-11-23T21:07:54.213Z,8.88
2022-11-23T21:13:16.023Z,9.07
2022-11-23T21:18:19.178Z,10.05
2022-11-23T21:23:22.324Z,9.48
2022-11-23T21:28:27.033Z,10.77
2022-11-23T21:33:30.869Z,8.35
2022-11-23T21:38:38.638Z,9.32
2022-11-23T21:43:43.513Z,9.82
2022-11-23T21:53:49.594Z,9.00
2022-11-23T21:58:54.475Z,8.52
2022-11-23T22:09:01.374Z,8.73
2022-11-23T22:14:09.167Z,8.27
2022-11-23T22:19:13.364Z,8.63
2022-11-23T22:24:18.207Z,8.60
2022-11-23T22:29:22.951Z,7.93
2022-11-23T22:34:26.838Z,9.10
2022-11-23T22:39:30.191Z,8.60
2022-11-23T22:44:35.441Z,8.02
2022-11-23T22:49:38.821Z,7.75
2022-11-23T22:54:42.121Z,8.00
2022-11-23T22:59:46.826Z,8.57
2022-11-23T23:04:50.238Z,8.20
2022-11-23T23:09:53.606Z,7.53
2022-11-23T23:14:58.333Z,8.20
2022-11-23T23:20:01.976Z,7.88
2022-11-23T23:25:07.857Z,7.93
2022-11-23T23:30:13.565Z,7.63
2022-11-23T23:35:17.015Z,6.93
2022-11-23T23:40:20.323Z,7.65
2022-11-23T23:45:25.103Z,7.07
2022-11-23T23:50:28.421Z,8.77
2022-11-23T23:55:31.718Z,7.82
